Terminal Aerodrome Forecast
Issued by NWS

Home | Current Version | Previous Version | Graphics & Text | Print | Product List | Glossary On
Versions: 1 2 3 4 5 6 7 8 9 10 11 12 13 14 15 16 17 18 19 20 21 22 23
000
FTUS43 KBIS 261700
TAFDIK
TAF
KDIK 261734Z 2618/2718 28004KT P6SM SCT015 SCT050
     FM262000 27006KT P6SM BKN020 BKN050
     FM270000 22006KT P6SM SCT020 BKN050
     FM270400 26007KT P6SM SCT009 BKN025=

USA.gov is the U.S. government's official web portal to all federal, state and local government web resources and services.